sensor_id;sensor_type;location;lat;lon;timestamp;P1;durP1;ratioP1;P2;durP2;ratioP2
38399;SDS011;24180;42.676;23.320;2023-04-01T00:01:18;20.03;;;10.33;;
38399;SDS011;24180;42.676;23.320;2023-04-01T00:03:44;17.47;;;10.30;;
38399;SDS011;24180;42.676;23.320;2023-04-01T00:06:13;22.27;;;13.03;;
38399;SDS011;24180;42.676;23.320;2023-04-01T00:08:40;20.27;;;13.20;;
38399;SDS011;24180;42.676;23.320;2023-04-01T00:11:05;22.57;;;14.37;;
38399;SDS011;24180;42.676;23.320;2023-04-01T00:13:31;30.03;;;16.07;;
38399;SDS011;24180;42.676;23.320;2023-04-01T00:15:57;23.57;;;16.03;;
38399;SDS011;24180;42.676;23.320;2023-04-01T00:18:23;23.03;;;15.60;;
38399;SDS011;24180;42.676;23.320;2023-04-01T00:20:50;23.30;;;15.83;;
38399;SDS011;24180;42.676;23.320;2023-04-01T00:23:16;27.57;;;14.30;;
38399;SDS011;24180;42.676;23.320;2023-04-01T00:25:43;18.43;;;14.07;;
38399;SDS011;24180;42.676;23.320;2023-04-01T00:28:10;22.30;;;15.27;;
38399;SDS011;24180;42.676;23.320;2023-04-01T00:30:36;21.83;;;14.93;;
38399;SDS011;24180;42.676;23.320;2023-04-01T00:33:02;23.43;;;13.70;;
38399;SDS011;24180;42.676;23.320;2023-04-01T00:35:28;20.87;;;13.60;;
38399;SDS011;24180;42.676;23.320;2023-04-01T00:37:53;19.77;;;13.63;;
38399;SDS011;24180;42.676;23.320;2023-04-01T00:40:36;23.40;;;14.40;;
38399;SDS011;24180;42.676;23.320;2023-04-01T00:43:09;21.13;;;14.77;;
38399;SDS011;24180;42.676;23.320;2023-04-01T00:45:38;22.80;;;15.53;;
38399;SDS011;24180;42.676;23.320;2023-04-01T00:48:07;25.67;;;15.13;;
38399;SDS011;24180;42.676;23.320;2023-04-01T00:50:36;23.00;;;15.20;;
38399;SDS011;24180;42.676;23.320;2023-04-01T00:53:04;19.53;;;13.57;;
38399;SDS011;24180;42.676;23.320;2023-04-01T00:55:32;28.80;;;13.90;;
38399;SDS011;24180;42.676;23.320;2023-04-01T00:58:01;14.93;;;12.23;;
38399;SDS011;24180;42.676;23.320;2023-04-01T01:00:30;24.77;;;14.33;;
38399;SDS011;24180;42.676;23.320;2023-04-01T01:02:56;20.57;;;12.20;;
38399;SDS011;24180;42.676;23.320;2023-04-01T01:05:23;18.30;;;11.80;;
38399;SDS011;24180;42.676;23.320;2023-04-01T01:08:03;16.23;;;10.80;;
38399;SDS011;24180;42.676;23.320;2023-04-01T01:10:34;14.57;;;10.23;;
38399;SDS011;24180;42.676;23.320;2023-04-01T01:16:06;14.57;;;10.23;;
38399;SDS011;24180;42.676;23.320;2023-04-01T01:18:44;15.57;;;9.60;;
38399;SDS011;24180;42.676;23.320;2023-04-01T01:27:06;15.00;;;9.20;;
38399;SDS011;24180;42.676;23.320;2023-04-01T01:37:30;9.60;;;7.80;;
38399;SDS011;24180;42.676;23.320;2023-04-01T01:40:02;13.97;;;7.83;;
38399;SDS011;24180;42.676;23.320;2023-04-01T01:42:31;14.77;;;8.83;;
38399;SDS011;24180;42.676;23.320;2023-04-01T01:45:00;10.50;;;7.73;;
38399;SDS011;24180;42.676;23.320;2023-04-01T01:47:27;12.73;;;8.50;;
38399;SDS011;24180;42.676;23.320;2023-04-01T01:49:54;14.47;;;7.80;;
38399;SDS011;24180;42.676;23.320;2023-04-01T01:52:24;9.73;;;7.10;;
38399;SDS011;24180;42.676;23.320;2023-04-01T01:54:53;11.17;;;7.60;;
38399;SDS011;24180;42.676;23.320;2023-04-01T01:57:23;12.03;;;7.10;;
38399;SDS011;24180;42.676;23.320;2023-04-01T01:59:52;9.50;;;6.83;;
38399;SDS011;24180;42.676;23.320;2023-04-01T02:02:22;9.73;;;7.23;;
38399;SDS011;24180;42.676;23.320;2023-04-01T02:04:50;15.73;;;7.30;;
38399;SDS011;24180;42.676;23.320;2023-04-01T02:07:21;13.70;;;7.50;;
38399;SDS011;24180;42.676;23.320;2023-04-01T02:09:52;13.23;;;7.07;;
38399;SDS011;24180;42.676;23.320;2023-04-01T02:12:18;9.90;;;7.63;;
38399;SDS011;24180;42.676;23.320;2023-04-01T02:14:52;11.13;;;7.67;;
38399;SDS011;24180;42.676;23.320;2023-04-01T02:17:23;12.30;;;7.83;;
38399;SDS011;24180;42.676;23.320;2023-04-01T02:20:25;11.33;;;7.50;;
38399;SDS011;24180;42.676;23.320;2023-04-01T02:22:53;13.13;;;9.50;;
38399;SDS011;24180;42.676;23.320;2023-04-01T02:25:22;12.97;;;7.67;;
38399;SDS011;24180;42.676;23.320;2023-04-01T02:27:51;11.47;;;7.33;;
38399;SDS011;24180;42.676;23.320;2023-04-01T02:30:17;12.20;;;7.30;;
38399;SDS011;24180;42.676;23.320;2023-04-01T02:32:44;15.10;;;7.60;;
38399;SDS011;24180;42.676;23.320;2023-04-01T02:35:10;14.03;;;7.83;;
38399;SDS011;24180;42.676;23.320;2023-04-01T02:37:38;10.67;;;7.87;;
38399;SDS011;24180;42.676;23.320;2023-04-01T02:40:10;13.13;;;8.13;;
38399;SDS011;24180;42.676;23.320;2023-04-01T02:42:39;10.73;;;7.60;;
38399;SDS011;24180;42.676;23.320;2023-04-01T02:45:05;13.40;;;8.00;;
38399;SDS011;24180;42.676;23.320;2023-04-01T02:47:31;12.27;;;8.47;;
38399;SDS011;24180;42.676;23.320;2023-04-01T02:49:57;14.40;;;7.90;;
38399;SDS011;24180;42.676;23.320;2023-04-01T02:52:25;11.13;;;7.73;;
38399;SDS011;24180;42.676;23.320;2023-04-01T02:54:51;10.57;;;7.13;;
38399;SDS011;24180;42.676;23.320;2023-04-01T02:57:17;13.90;;;7.60;;
38399;SDS011;24180;42.676;23.320;2023-04-01T02:59:42;15.23;;;8.53;;
38399;SDS011;24180;42.676;23.320;2023-04-01T03:02:07;10.57;;;7.97;;
38399;SDS011;24180;42.676;23.320;2023-04-01T03:04:33;11.90;;;7.77;;
38399;SDS011;24180;42.676;23.320;2023-04-01T03:06:58;12.30;;;8.17;;
38399;SDS011;24180;42.676;23.320;2023-04-01T03:09:24;16.23;;;9.03;;
38399;SDS011;24180;42.676;23.320;2023-04-01T03:11:49;9.30;;;7.60;;
38399;SDS011;24180;42.676;23.320;2023-04-01T03:14:15;13.83;;;7.80;;
38399;SDS011;24180;42.676;23.320;2023-04-01T03:16:40;10.63;;;8.23;;
38399;SDS011;24180;42.676;23.320;2023-04-01T03:19:05;11.70;;;7.93;;
38399;SDS011;24180;42.676;23.320;2023-04-01T03:21:31;13.43;;;8.50;;
38399;SDS011;24180;42.676;23.320;2023-04-01T03:23:56;14.97;;;8.80;;
38399;SDS011;24180;42.676;23.320;2023-04-01T03:26:22;14.53;;;9.27;;
38399;SDS011;24180;42.676;23.320;2023-04-01T03:28:47;11.37;;;7.97;;
38399;SDS011;24180;42.676;23.320;2023-04-01T03:31:13;15.27;;;9.47;;
38399;SDS011;24180;42.676;23.320;2023-04-01T03:33:39;18.20;;;14.40;;
38399;SDS011;24180;42.676;23.320;2023-04-01T03:36:05;22.83;;;15.43;;
38399;SDS011;24180;42.676;23.320;2023-04-01T03:38:32;23.47;;;18.20;;
38399;SDS011;24180;42.676;23.320;2023-04-01T03:40:58;19.60;;;15.50;;
38399;SDS011;24180;42.676;23.320;2023-04-01T03:43:24;19.23;;;15.33;;
38399;SDS011;24180;42.676;23.320;2023-04-01T03:45:51;17.93;;;14.93;;
38399;SDS011;24180;42.676;23.320;2023-04-01T03:48:16;16.47;;;13.20;;
38399;SDS011;24180;42.676;23.320;2023-04-01T03:50:42;14.57;;;12.07;;
38399;SDS011;24180;42.676;23.320;2023-04-01T03:53:09;18.50;;;12.30;;
38399;SDS011;24180;42.676;23.320;2023-04-01T03:55:35;14.63;;;9.90;;
38399;SDS011;24180;42.676;23.320;2023-04-01T03:58:01;12.77;;;9.30;;
38399;SDS011;24180;42.676;23.320;2023-04-01T04:00:28;15.97;;;9.13;;
38399;SDS011;24180;42.676;23.320;2023-04-01T04:02:54;12.90;;;8.37;;
38399;SDS011;24180;42.676;23.320;2023-04-01T04:05:21;11.67;;;8.57;;
38399;SDS011;24180;42.676;23.320;2023-04-01T04:07:50;12.10;;;8.37;;
38399;SDS011;24180;42.676;23.320;2023-04-01T04:10:15;11.23;;;8.10;;
38399;SDS011;24180;42.676;23.320;2023-04-01T04:12:41;11.97;;;7.97;;
38399;SDS011;24180;42.676;23.320;2023-04-01T04:15:07;11.70;;;7.93;;
38399;SDS011;24180;42.676;23.320;2023-04-01T04:17:33;13.70;;;7.57;;
38399;SDS011;24180;42.676;23.320;2023-04-01T04:19:58;11.73;;;8.10;;
38399;SDS011;24180;42.676;23.320;2023-04-01T04:22:24;15.30;;;9.13;;
38399;SDS011;24180;42.676;23.320;2023-04-01T04:24:49;12.33;;;8.63;;
38399;SDS011;24180;42.676;23.320;2023-04-01T04:27:15;12.87;;;8.40;;
38399;SDS011;24180;42.676;23.320;2023-04-01T04:29:40;13.13;;;9.23;;
38399;SDS011;24180;42.676;23.320;2023-04-01T04:32:06;12.50;;;8.10;;
38399;SDS011;24180;42.676;23.320;2023-04-01T04:34:32;14.30;;;8.57;;
38399;SDS011;24180;42.676;23.320;2023-04-01T04:36:57;13.43;;;8.00;;
38399;SDS011;24180;42.676;23.320;2023-04-01T04:39:23;20.07;;;8.13;;
38399;SDS011;24180;42.676;23.320;2023-04-01T04:41:48;11.77;;;7.60;;
38399;SDS011;24180;42.676;23.320;2023-04-01T04:44:14;15.53;;;8.73;;
38399;SDS011;24180;42.676;23.320;2023-04-01T04:46:39;14.60;;;8.17;;
38399;SDS011;24180;42.676;23.320;2023-04-01T04:49:05;13.23;;;8.93;;
38399;SDS011;24180;42.676;23.320;2023-04-01T04:51:31;11.90;;;8.20;;
38399;SDS011;24180;42.676;23.320;2023-04-01T04:53:59;14.17;;;8.60;;
38399;SDS011;24180;42.676;23.320;2023-04-01T04:56:25;16.00;;;8.97;;
38399;SDS011;24180;42.676;23.320;2023-04-01T04:58:51;13.60;;;8.40;;
38399;SDS011;24180;42.676;23.320;2023-04-01T05:01:17;15.30;;;8.37;;
38399;SDS011;24180;42.676;23.320;2023-04-01T05:03:43;15.57;;;9.03;;
38399;SDS011;24180;42.676;23.320;2023-04-01T05:06:11;13.50;;;8.20;;
38399;SDS011;24180;42.676;23.320;2023-04-01T05:08:38;12.47;;;8.40;;
38399;SDS011;24180;42.676;23.320;2023-04-01T05:11:06;14.00;;;7.73;;
38399;SDS011;24180;42.676;23.320;2023-04-01T05:13:35;13.27;;;8.50;;
38399;SDS011;24180;42.676;23.320;2023-04-01T05:16:01;14.17;;;8.37;;
38399;SDS011;24180;42.676;23.320;2023-04-01T05:18:27;16.77;;;9.87;;
38399;SDS011;24180;42.676;23.320;2023-04-01T05:20:53;18.07;;;8.70;;
38399;SDS011;24180;42.676;23.320;2023-04-01T05:23:20;12.23;;;9.17;;
38399;SDS011;24180;42.676;23.320;2023-04-01T05:25:49;15.90;;;9.27;;
38399;SDS011;24180;42.676;23.320;2023-04-01T05:28:17;15.43;;;9.40;;
38399;SDS011;24180;42.676;23.320;2023-04-01T05:30:43;15.87;;;9.13;;
38399;SDS011;24180;42.676;23.320;2023-04-01T05:33:10;14.03;;;8.73;;
38399;SDS011;24180;42.676;23.320;2023-04-01T05:35:36;15.47;;;9.40;;
38399;SDS011;24180;42.676;23.320;2023-04-01T05:38:02;16.17;;;8.77;;
38399;SDS011;24180;42.676;23.320;2023-04-01T05:40:28;14.77;;;8.47;;
38399;SDS011;24180;42.676;23.320;2023-04-01T05:42:54;13.77;;;8.83;;
38399;SDS011;24180;42.676;23.320;2023-04-01T05:45:19;12.77;;;8.50;;
38399;SDS011;24180;42.676;23.320;2023-04-01T05:47:45;15.97;;;8.60;;
38399;SDS011;24180;42.676;23.320;2023-04-01T05:50:11;10.30;;;8.27;;
38399;SDS011;24180;42.676;23.320;2023-04-01T05:52:37;10.93;;;8.23;;
38399;SDS011;24180;42.676;23.320;2023-04-01T05:55:03;11.13;;;7.60;;
38399;SDS011;24180;42.676;23.320;2023-04-01T05:57:29;9.80;;;7.00;;
38399;SDS011;24180;42.676;23.320;2023-04-01T05:59:55;10.90;;;6.93;;
38399;SDS011;24180;42.676;23.320;2023-04-01T06:02:20;11.13;;;6.60;;
38399;SDS011;24180;42.676;23.320;2023-04-01T06:04:46;9.43;;;6.03;;
38399;SDS011;24180;42.676;23.320;2023-04-01T06:07:15;10.97;;;6.30;;
38399;SDS011;24180;42.676;23.320;2023-04-01T06:09:43;9.57;;;6.03;;
38399;SDS011;24180;42.676;23.320;2023-04-01T06:17:43;14.70;;;6.70;;
38399;SDS011;24180;42.676;23.320;2023-04-01T06:20:58;9.10;;;5.73;;
38399;SDS011;24180;42.676;23.320;2023-04-01T06:23:39;12.80;;;5.77;;
38399;SDS011;24180;42.676;23.320;2023-04-01T06:50:49;8.33;;;5.93;;
38399;SDS011;24180;42.676;23.320;2023-04-01T06:56:31;13.07;;;5.47;;
38399;SDS011;24180;42.676;23.320;2023-04-01T06:59:10;8.63;;;6.07;;
38399;SDS011;24180;42.676;23.320;2023-04-01T07:04:48;8.40;;;6.10;;
38399;SDS011;24180;42.676;23.320;2023-04-01T07:10:12;10.77;;;6.43;;
38399;SDS011;24180;42.676;23.320;2023-04-01T07:12:48;10.70;;;7.27;;
38399;SDS011;24180;42.676;23.320;2023-04-01T07:18:12;14.00;;;7.93;;
38399;SDS011;24180;42.676;23.320;2023-04-01T07:20:42;12.37;;;7.13;;
38399;SDS011;24180;42.676;23.320;2023-04-01T07:23:27;9.23;;;8.10;;
38399;SDS011;24180;42.676;23.320;2023-04-01T07:26:04;11.47;;;8.20;;
38399;SDS011;24180;42.676;23.320;2023-04-01T07:28:39;9.40;;;6.10;;
38399;SDS011;24180;42.676;23.320;2023-04-01T07:36:52;12.63;;;6.37;;
38399;SDS011;24180;42.676;23.320;2023-04-01T07:50:32;15.80;;;7.23;;
38399;SDS011;24180;42.676;23.320;2023-04-01T07:55:39;12.47;;;7.23;;
38399;SDS011;24180;42.676;23.320;2023-04-01T08:22:20;12.43;;;6.60;;
38399;SDS011;24180;42.676;23.320;2023-04-01T08:24:51;10.40;;;6.47;;
38399;SDS011;24180;42.676;23.320;2023-04-01T08:27:21;13.23;;;6.53;;
38399;SDS011;24180;42.676;23.320;2023-04-01T08:30:15;11.90;;;6.20;;
38399;SDS011;24180;42.676;23.320;2023-04-01T08:32:42;11.63;;;6.70;;
38399;SDS011;24180;42.676;23.320;2023-04-01T08:35:34;7.97;;;7.17;;
38399;SDS011;24180;42.676;23.320;2023-04-01T08:38:11;10.00;;;6.37;;
38399;SDS011;24180;42.676;23.320;2023-04-01T08:41:00;11.03;;;6.57;;
38399;SDS011;24180;42.676;23.320;2023-04-01T08:52:11;15.47;;;6.03;;
38399;SDS011;24180;42.676;23.320;2023-04-01T08:58:38;7.37;;;5.47;;
38399;SDS011;24180;42.676;23.320;2023-04-01T09:00:48;8.77;;;6.07;;
38399;SDS011;24180;42.676;23.320;2023-04-01T09:05:55;8.27;;;6.50;;
38399;SDS011;24180;42.676;23.320;2023-04-01T09:08:49;8.77;;;5.70;;
38399;SDS011;24180;42.676;23.320;2023-04-01T09:11:52;7.90;;;4.87;;
38399;SDS011;24180;42.676;23.320;2023-04-01T09:14:26;6.30;;;4.97;;
38399;SDS011;24180;42.676;23.320;2023-04-01T09:19:53;9.73;;;5.00;;
38399;SDS011;24180;42.676;23.320;2023-04-01T09:28:30;7.00;;;5.07;;
38399;SDS011;24180;42.676;23.320;2023-04-01T09:34:06;12.57;;;5.40;;
38399;SDS011;24180;42.676;23.320;2023-04-01T09:36:57;9.10;;;6.47;;
38399;SDS011;24180;42.676;23.320;2023-04-01T09:39:36;6.63;;;4.80;;
38399;SDS011;24180;42.676;23.320;2023-04-01T09:44:37;5.27;;;4.77;;
38399;SDS011;24180;42.676;23.320;2023-04-01T09:47:28;8.07;;;4.80;;
38399;SDS011;24180;42.676;23.320;2023-04-01T10:15:26;10.00;;;6.13;;
38399;SDS011;24180;42.676;23.320;2023-04-01T10:21:08;12.53;;;5.70;;
38399;SDS011;24180;42.676;23.320;2023-04-01T10:26:49;10.73;;;5.30;;
38399;SDS011;24180;42.676;23.320;2023-04-01T10:56:50;10.03;;;5.37;;
38399;SDS011;24180;42.676;23.320;2023-04-01T11:05:50;8.93;;;4.70;;
38399;SDS011;24180;42.676;23.320;2023-04-01T11:22:31;9.07;;;5.90;;
38399;SDS011;24180;42.676;23.320;2023-04-01T11:30:19;9.00;;;4.43;;
38399;SDS011;24180;42.676;23.320;2023-04-01T11:32:50;5.63;;;3.47;;
38399;SDS011;24180;42.676;23.320;2023-04-01T11:35:32;6.33;;;3.70;;
38399;SDS011;24180;42.676;23.320;2023-04-01T11:46:44;7.50;;;4.37;;
38399;SDS011;24180;42.676;23.320;2023-04-01T11:54:25;6.60;;;3.70;;
38399;SDS011;24180;42.676;23.320;2023-04-01T12:02:46;11.33;;;4.90;;
38399;SDS011;24180;42.676;23.320;2023-04-01T12:30:20;10.20;;;6.03;;
38399;SDS011;24180;42.676;23.320;2023-04-01T12:42:10;10.17;;;6.50;;
38399;SDS011;24180;42.676;23.320;2023-04-01T12:48:30;11.37;;;6.10;;
38399;SDS011;24180;42.676;23.320;2023-04-01T12:56:14;8.97;;;6.67;;
38399;SDS011;24180;42.676;23.320;2023-04-01T13:10:01;9.27;;;5.97;;
38399;SDS011;24180;42.676;23.320;2023-04-01T13:12:44;12.37;;;6.57;;
38399;SDS011;24180;42.676;23.320;2023-04-01T13:29:20;11.47;;;6.87;;
38399;SDS011;24180;42.676;23.320;2023-04-01T13:32:06;8.83;;;6.80;;
38399;SDS011;24180;42.676;23.320;2023-04-01T13:34:59;8.33;;;5.50;;
38399;SDS011;24180;42.676;23.320;2023-04-01T13:37:37;6.53;;;5.40;;
38399;SDS011;24180;42.676;23.320;2023-04-01T13:40:41;10.90;;;6.13;;
38399;SDS011;24180;42.676;23.320;2023-04-01T13:43:28;8.73;;;5.80;;
38399;SDS011;24180;42.676;23.320;2023-04-01T13:58:00;8.87;;;6.23;;
38399;SDS011;24180;42.676;23.320;2023-04-01T14:06:05;6.80;;;5.10;;
38399;SDS011;24180;42.676;23.320;2023-04-01T14:17:34;4.47;;;3.87;;
38399;SDS011;24180;42.676;23.320;2023-04-01T14:40:54;2.90;;;2.70;;
38399;SDS011;24180;42.676;23.320;2023-04-01T14:48:49;6.17;;;5.67;;
38399;SDS011;24180;42.676;23.320;2023-04-01T14:51:28;7.30;;;5.73;;
38399;SDS011;24180;42.676;23.320;2023-04-01T14:56:50;7.57;;;5.33;;
38399;SDS011;24180;42.676;23.320;2023-04-01T14:59:29;6.50;;;4.93;;
38399;SDS011;24180;42.676;23.320;2023-04-01T15:10:30;6.37;;;4.20;;
38399;SDS011;24180;42.676;23.320;2023-04-01T15:18:53;7.23;;;5.20;;
38399;SDS011;24180;42.676;23.320;2023-04-01T15:24:46;5.33;;;4.43;;
38399;SDS011;24180;42.676;23.320;2023-04-01T15:32:58;6.93;;;5.10;;
38399;SDS011;24180;42.676;23.320;2023-04-01T15:44:01;5.13;;;4.20;;
38399;SDS011;24180;42.676;23.320;2023-04-01T15:54:38;3.10;;;2.80;;
38399;SDS011;24180;42.676;23.320;2023-04-01T16:03:31;4.23;;;3.83;;
38399;SDS011;24180;42.676;23.320;2023-04-01T16:17:25;4.80;;;4.33;;
38399;SDS011;24180;42.676;23.320;2023-04-01T16:19:58;5.53;;;5.03;;
38399;SDS011;24180;42.676;23.320;2023-04-01T16:22:27;5.77;;;5.27;;
38399;SDS011;24180;42.676;23.320;2023-04-01T16:31:06;5.70;;;5.20;;
38399;SDS011;24180;42.676;23.320;2023-04-01T16:37:07;4.97;;;4.47;;
38399;SDS011;24180;42.676;23.320;2023-04-01T16:42:47;4.70;;;4.20;;
38399;SDS011;24180;42.676;23.320;2023-04-01T16:45:19;3.50;;;3.20;;
38399;SDS011;24180;42.676;23.320;2023-04-01T16:48:15;3.10;;;2.90;;
38399;SDS011;24180;42.676;23.320;2023-04-01T16:53:36;4.97;;;4.10;;
38399;SDS011;24180;42.676;23.320;2023-04-01T16:58:59;4.00;;;3.67;;
38399;SDS011;24180;42.676;23.320;2023-04-01T17:31:14;3.10;;;2.90;;
38399;SDS011;24180;42.676;23.320;2023-04-01T17:33:54;2.70;;;2.53;;
38399;SDS011;24180;42.676;23.320;2023-04-01T17:58:03;3.30;;;2.97;;
38399;SDS011;24180;42.676;23.320;2023-04-01T18:12:26;5.50;;;5.00;;
38399;SDS011;24180;42.676;23.320;2023-04-01T18:15:19;5.83;;;5.27;;
38399;SDS011;24180;42.676;23.320;2023-04-01T18:18:05;5.93;;;5.40;;
38399;SDS011;24180;42.676;23.320;2023-04-01T18:20:41;5.20;;;4.70;;
38399;SDS011;24180;42.676;23.320;2023-04-01T18:26:31;4.53;;;4.13;;
38399;SDS011;24180;42.676;23.320;2023-04-01T18:29:02;3.80;;;3.60;;
38399;SDS011;24180;42.676;23.320;2023-04-01T18:31:38;4.20;;;3.90;;
38399;SDS011;24180;42.676;23.320;2023-04-01T18:34:20;4.00;;;3.70;;
38399;SDS011;24180;42.676;23.320;2023-04-01T18:37:54;4.37;;;3.90;;
38399;SDS011;24180;42.676;23.320;2023-04-01T18:48:14;3.13;;;2.93;;
38399;SDS011;24180;42.676;23.320;2023-04-01T18:51:00;4.00;;;3.70;;
38399;SDS011;24180;42.676;23.320;2023-04-01T18:56:24;3.67;;;3.37;;
38399;SDS011;24180;42.676;23.320;2023-04-01T18:59:08;3.50;;;3.20;;
38399;SDS011;24180;42.676;23.320;2023-04-01T19:01:47;3.70;;;3.33;;
38399;SDS011;24180;42.676;23.320;2023-04-01T19:07:30;3.80;;;3.50;;
38399;SDS011;24180;42.676;23.320;2023-04-01T19:29:56;2.53;;;2.43;;
38399;SDS011;24180;42.676;23.320;2023-04-01T19:44:47;2.70;;;2.60;;
38399;SDS011;24180;42.676;23.320;2023-04-01T19:52:37;3.00;;;2.80;;
38399;SDS011;24180;42.676;23.320;2023-04-01T20:00:53;3.23;;;3.03;;
38399;SDS011;24180;42.676;23.320;2023-04-01T20:19:27;3.20;;;3.00;;
38399;SDS011;24180;42.676;23.320;2023-04-01T20:21:56;3.23;;;3.03;;
38399;SDS011;24180;42.676;23.320;2023-04-01T20:27:08;3.17;;;2.97;;
38399;SDS011;24180;42.676;23.320;2023-04-01T20:35:51;3.23;;;2.93;;
38399;SDS011;24180;42.676;23.320;2023-04-01T20:47:18;2.80;;;2.63;;
38399;SDS011;24180;42.676;23.320;2023-04-01T20:58:48;3.17;;;2.87;;
38399;SDS011;24180;42.676;23.320;2023-04-01T21:01:32;4.03;;;2.97;;
38399;SDS011;24180;42.676;23.320;2023-04-01T21:06:47;3.40;;;3.20;;
38399;SDS011;24180;42.676;23.320;2023-04-01T21:14:28;2.80;;;2.60;;
38399;SDS011;24180;42.676;23.320;2023-04-01T21:17:16;3.00;;;2.80;;
38399;SDS011;24180;42.676;23.320;2023-04-01T21:20:02;2.70;;;2.50;;
38399;SDS011;24180;42.676;23.320;2023-04-01T21:22:41;2.60;;;2.50;;
38399;SDS011;24180;42.676;23.320;2023-04-01T21:33:41;3.03;;;2.83;;
38399;SDS011;24180;42.676;23.320;2023-04-01T21:36:28;3.00;;;2.80;;
38399;SDS011;24180;42.676;23.320;2023-04-01T21:44:57;2.80;;;2.60;;
38399;SDS011;24180;42.676;23.320;2023-04-01T22:00:32;3.10;;;2.80;;
38399;SDS011;24180;42.676;23.320;2023-04-01T22:03:09;3.03;;;2.83;;
38399;SDS011;24180;42.676;23.320;2023-04-01T22:06:00;2.93;;;2.73;;
38399;SDS011;24180;42.676;23.320;2023-04-01T22:08:56;3.07;;;2.87;;
38399;SDS011;24180;42.676;23.320;2023-04-01T22:11:55;2.87;;;2.67;;
38399;SDS011;24180;42.676;23.320;2023-04-01T22:14:31;3.43;;;3.13;;
38399;SDS011;24180;42.676;23.320;2023-04-01T22:19:41;5.43;;;3.50;;
38399;SDS011;24180;42.676;23.320;2023-04-01T22:22:22;3.47;;;3.17;;
38399;SDS011;24180;42.676;23.320;2023-04-01T22:27:26;2.80;;;2.60;;
38399;SDS011;24180;42.676;23.320;2023-04-01T22:30:10;4.87;;;3.20;;
38399;SDS011;24180;42.676;23.320;2023-04-01T22:32:47;4.20;;;3.30;;
38399;SDS011;24180;42.676;23.320;2023-04-01T22:35:37;4.20;;;2.90;;
38399;SDS011;24180;42.676;23.320;2023-04-01T22:44:05;9.07;;;6.13;;
38399;SDS011;24180;42.676;23.320;2023-04-01T22:46:53;10.13;;;7.50;;
38399;SDS011;24180;42.676;23.320;2023-04-01T22:49:36;9.30;;;6.40;;
38399;SDS011;24180;42.676;23.320;2023-04-01T22:55:04;5.23;;;3.93;;
38399;SDS011;24180;42.676;23.320;2023-04-01T22:57:58;3.90;;;3.40;;
38399;SDS011;24180;42.676;23.320;2023-04-01T23:00:35;4.63;;;3.00;;
38399;SDS011;24180;42.676;23.320;2023-04-01T23:03:22;2.80;;;2.57;;
38399;SDS011;24180;42.676;23.320;2023-04-01T23:05:57;2.83;;;2.60;;
38399;SDS011;24180;42.676;23.320;2023-04-01T23:11:26;2.60;;;2.40;;
38399;SDS011;24180;42.676;23.320;2023-04-01T23:14:44;3.23;;;2.20;;
38399;SDS011;24180;42.676;23.320;2023-04-01T23:16:57;2.20;;;2.10;;
38399;SDS011;24180;42.676;23.320;2023-04-01T23:28:05;2.20;;;2.10;;
38399;SDS011;24180;42.676;23.320;2023-04-01T23:33:13;2.20;;;2.10;;
38399;SDS011;24180;42.676;23.320;2023-04-01T23:35:50;2.00;;;1.90;;
38399;SDS011;24180;42.676;23.320;2023-04-01T23:38:30;1.93;;;1.77;;
38399;SDS011;24180;42.676;23.320;2023-04-01T23:40:58;4.37;;;2.00;;
38399;SDS011;24180;42.676;23.320;2023-04-01T23:43:27;1.97;;;1.87;;
38399;SDS011;24180;42.676;23.320;2023-04-01T23:46:00;3.63;;;2.00;;
38399;SDS011;24180;42.676;23.320;2023-04-01T23:48:32;2.30;;;2.10;;
38399;SDS011;24180;42.676;23.320;2023-04-01T23:51:00;2.17;;;2.07;;
38399;SDS011;24180;42.676;23.320;2023-04-01T23:53:28;1.87;;;1.77;;
38399;SDS011;24180;42.676;23.320;2023-04-01T23:55:57;2.20;;;2.10;;
38399;SDS011;24180;42.676;23.320;2023-04-01T23:58:24;1.77;;;1.70;;
